createdAt,value
2023-04-30T00:00:56.097Z,65.88
2023-04-30T00:03:28.447Z,68.26
2023-04-30T00:06:00.791Z,70.55
2023-04-30T00:08:33.086Z,70.16
2023-04-30T00:11:05.312Z,68.57
2023-04-30T00:13:37.488Z,67.72
2023-04-30T00:16:12.673Z,68.63
2023-04-30T00:18:44.931Z,72.75
2023-04-30T00:21:17.159Z,75.36
2023-04-30T00:23:49.399Z,72.65
2023-04-30T00:26:21.565Z,75.23
2023-04-30T00:28:53.801Z,73.54
2023-04-30T00:31:28.649Z,78.71
2023-04-30T00:34:00.929Z,75.06
2023-04-30T00:36:33.561Z,76.67
2023-04-30T00:39:05.933Z,72.86
2023-04-30T00:41:39.891Z,74.73
2023-04-30T00:44:12.058Z,75.56
2023-04-30T00:46:46.892Z,70.25
2023-04-30T00:49:19.255Z,73.08
2023-04-30T00:51:51.790Z,73.72
2023-04-30T00:54:25.086Z,77.40
2023-04-30T00:56:57.368Z,74.98
2023-04-30T00:59:30.270Z,78.56
2023-04-30T01:02:06.592Z,80.72
2023-04-30T01:04:39.552Z,80.71
2023-04-30T01:07:11.971Z,76.62
2023-04-30T01:09:44.266Z,79.68
2023-04-30T01:12:25.647Z,77.33
2023-04-30T01:15:08.157Z,75.14
2023-04-30T01:17:49.629Z,74.79
2023-04-30T01:20:23.523Z,69.09
2023-04-30T01:23:07.800Z,73.16
2023-04-30T01:25:56.052Z,77.40
2023-04-30T01:28:33.126Z,74.60
2023-04-30T01:31:05.392Z,76.01
2023-04-30T01:33:37.618Z,76.81
2023-04-30T01:36:43.813Z,77.01
2023-04-30T01:39:39.172Z,79.26
2023-04-30T01:42:21.120Z,82.98
2023-04-30T01:45:24.729Z,79.33
2023-04-30T01:48:07.272Z,81.74
2023-04-30T01:50:47.880Z,82.39
2023-04-30T01:53:25.893Z,95.85
2023-04-30T01:56:06.215Z,119.34
2023-04-30T01:58:41.779Z,120.61
2023-04-30T02:01:31.020Z,111.78
2023-04-30T02:04:04.800Z,100.24
2023-04-30T02:06:37.665Z,93.05
2023-04-30T02:09:10.829Z,88.46
2023-04-30T02:11:43.205Z,89.12
2023-04-30T02:14:15.463Z,88.60
2023-04-30T02:16:50.355Z,87.79
2023-04-30T02:19:22.527Z,82.01
2023-04-30T02:21:54.733Z,82.06
2023-04-30T02:24:27.026Z,77.74
2023-04-30T02:26:59.227Z,78.13
2023-04-30T02:29:31.455Z,78.91
2023-04-30T02:32:06.597Z,79.19
2023-04-30T02:34:38.773Z,79.87
2023-04-30T02:37:11.162Z,81.88
2023-04-30T02:39:43.346Z,81.07
2023-04-30T02:42:15.579Z,80.57
2023-04-30T02:44:47.856Z,82.72
2023-04-30T02:47:22.810Z,85.88
2023-04-30T02:49:55.270Z,85.12
2023-04-30T02:52:27.835Z,82.44
2023-04-30T02:55:00.068Z,75.37
2023-04-30T02:57:32.303Z,73.23
2023-04-30T03:00:04.918Z,73.44
2023-04-30T03:02:39.837Z,69.26
2023-04-30T03:05:12.739Z,71.68
2023-04-30T03:07:44.930Z,73.11
2023-04-30T03:10:19.278Z,74.49
2023-04-30T03:12:51.737Z,73.79
2023-04-30T03:15:23.997Z,73.94
2023-04-30T03:17:58.837Z,74.50
2023-04-30T03:20:31.094Z,77.23
2023-04-30T03:23:03.518Z,79.76
2023-04-30T03:25:35.738Z,78.81
2023-04-30T03:28:08.276Z,76.57
2023-04-30T03:30:40.617Z,79.01
2023-04-30T03:33:15.458Z,77.29
2023-04-30T03:35:47.815Z,74.74
2023-04-30T03:38:20.058Z,71.35
2023-04-30T03:40:52.303Z,70.16
2023-04-30T03:43:24.529Z,69.96
2023-04-30T03:45:56.770Z,68.32
2023-04-30T03:48:31.675Z,69.18
2023-04-30T03:51:03.867Z,73.09
2023-04-30T03:53:36.031Z,76.08
2023-04-30T03:56:09.942Z,77.74
2023-04-30T03:58:42.623Z,78.96
2023-04-30T04:01:14.868Z,73.86
2023-04-30T04:03:49.727Z,74.56
2023-04-30T04:06:21.981Z,72.12
2023-04-30T04:08:54.334Z,75.44
2023-04-30T04:11:26.575Z,74.65
2023-04-30T04:13:58.780Z,76.21
2023-04-30T04:16:31.091Z,79.49
2023-04-30T04:19:06.880Z,77.51
2023-04-30T04:21:39.055Z,76.60
2023-04-30T04:24:11.713Z,76.76
2023-04-30T04:26:45.682Z,76.89
2023-04-30T04:29:18.919Z,73.84
2023-04-30T04:31:51.929Z,72.99
2023-04-30T04:34:26.989Z,73.03
2023-04-30T04:36:59.187Z,72.91
2023-04-30T04:39:31.378Z,73.79
2023-04-30T04:42:05.236Z,75.00
2023-04-30T04:44:37.862Z,73.53
2023-04-30T04:47:10.318Z,74.31
2023-04-30T04:49:45.060Z,75.87
2023-04-30T04:52:17.243Z,74.99
2023-04-30T04:54:49.458Z,74.71
2023-04-30T04:57:21.651Z,78.12
2023-04-30T04:59:54.051Z,76.15
2023-04-30T05:02:26.534Z,77.04
2023-04-30T05:05:01.925Z,77.91
2023-04-30T05:07:35.198Z,78.28
2023-04-30T05:10:07.437Z,79.54
2023-04-30T05:12:39.607Z,77.80
2023-04-30T05:15:12.724Z,77.77
2023-04-30T05:17:45.037Z,76.10
2023-04-30T05:20:20.124Z,77.93
2023-04-30T05:22:52.339Z,77.36
2023-04-30T05:25:24.705Z,76.31
2023-04-30T05:27:56.943Z,75.49
2023-04-30T05:30:29.207Z,79.88
2023-04-30T05:33:02.457Z,76.04
2023-04-30T05:35:38.072Z,76.49
2023-04-30T05:38:10.395Z,80.28
2023-04-30T05:40:42.585Z,82.59
2023-04-30T05:43:14.854Z,81.66
2023-04-30T05:45:47.268Z,79.56
2023-04-30T05:48:19.490Z,82.45
2023-04-30T05:50:54.329Z,84.79
2023-04-30T05:53:26.580Z,81.76
2023-04-30T05:55:58.988Z,84.44
2023-04-30T05:58:31.201Z,84.74
2023-04-30T06:01:03.484Z,81.00
2023-04-30T06:03:35.868Z,80.27
2023-04-30T06:06:11.195Z,77.79
2023-04-30T06:08:45.644Z,78.79
2023-04-30T06:11:18.178Z,79.64
2023-04-30T06:13:52.669Z,76.49
2023-04-30T06:16:24.969Z,73.94
2023-04-30T06:18:57.200Z,72.51
2023-04-30T06:21:32.040Z,71.59
2023-04-30T06:24:04.216Z,71.61
2023-04-30T06:26:38.962Z,75.31
2023-04-30T06:29:11.531Z,77.07
2023-04-30T06:31:43.800Z,76.94
2023-04-30T06:34:16.052Z,77.86
2023-04-30T06:36:50.924Z,81.12
2023-04-30T06:39:23.150Z,76.21
2023-04-30T06:41:55.426Z,76.06
2023-04-30T06:44:27.780Z,72.86
2023-04-30T06:47:00.508Z,70.24
2023-04-30T06:49:32.743Z,69.22
2023-04-30T06:52:07.711Z,70.94
2023-04-30T06:54:39.922Z,69.79
2023-04-30T06:57:12.498Z,67.93
2023-04-30T06:59:44.742Z,65.54
2023-04-30T07:02:17.859Z,64.64
2023-04-30T07:04:51.222Z,69.44
2023-04-30T07:07:26.074Z,68.59
2023-04-30T07:09:58.879Z,66.81
2023-04-30T07:12:31.538Z,66.02
2023-04-30T07:15:03.911Z,64.94
2023-04-30T07:17:36.376Z,63.83
2023-04-30T07:20:09.443Z,63.40
2023-04-30T07:22:46.110Z,66.00
2023-04-30T07:25:18.887Z,66.12
2023-04-30T07:27:51.073Z,62.01
2023-04-30T07:30:25.232Z,62.56
2023-04-30T07:32:57.667Z,62.75
2023-04-30T07:35:29.917Z,66.12
2023-04-30T07:38:04.993Z,63.61
2023-04-30T07:40:37.749Z,64.26
2023-04-30T07:43:10.004Z,66.09
2023-04-30T07:45:42.612Z,65.42
2023-04-30T07:48:14.865Z,64.95
2023-04-30T07:50:47.064Z,69.04
2023-04-30T07:53:21.885Z,66.64
2023-04-30T07:55:54.116Z,70.09
2023-04-30T07:58:26.415Z,68.06
2023-04-30T08:00:58.814Z,70.19
2023-04-30T08:03:31.169Z,67.37
2023-04-30T08:06:03.746Z,69.61
2023-04-30T08:08:39.772Z,66.49
2023-04-30T08:11:11.967Z,67.93
2023-04-30T08:13:44.783Z,67.50
2023-04-30T08:16:17.281Z,64.99
2023-04-30T08:18:49.902Z,67.01
2023-04-30T08:21:22.329Z,66.11
2023-04-30T08:23:57.409Z,64.37
2023-04-30T08:26:30.941Z,68.41
2023-04-30T08:29:03.185Z,64.39
2023-04-30T08:31:35.458Z,63.24
2023-04-30T08:34:07.654Z,59.45
2023-04-30T08:36:40.814Z,62.09
2023-04-30T08:39:15.608Z,62.74
2023-04-30T08:41:56.383Z,61.45
2023-04-30T08:44:31.104Z,59.19
2023-04-30T08:47:05.551Z,61.00
2023-04-30T08:49:38.785Z,58.14
2023-04-30T08:52:11.311Z,55.01
2023-04-30T08:54:48.657Z,57.98
2023-04-30T08:57:22.750Z,53.54
2023-04-30T08:59:55.289Z,52.47
2023-04-30T09:02:27.964Z,50.64
2023-04-30T09:05:00.225Z,48.71
2023-04-30T09:07:36.480Z,47.56
2023-04-30T09:10:19.719Z,46.59
2023-04-30T09:13:03.512Z,50.61
2023-04-30T09:15:37.606Z,48.20
2023-04-30T09:18:17.774Z,46.71
2023-04-30T09:21:03.202Z,47.31
2023-04-30T09:23:35.765Z,47.39
2023-04-30T09:26:10.488Z,44.11
2023-04-30T09:28:58.437Z,44.46
2023-04-30T09:31:31.455Z,42.79
2023-04-30T09:34:03.654Z,44.18
2023-04-30T09:36:36.205Z,44.54
2023-04-30T09:39:15.520Z,40.70
2023-04-30T09:41:51.611Z,40.99
2023-04-30T09:44:34.376Z,40.73
2023-04-30T09:47:07.703Z,44.21
2023-04-30T09:49:42.320Z,42.05
2023-04-30T09:52:15.608Z,41.69
2023-04-30T09:54:50.117Z,40.19
2023-04-30T09:57:28.378Z,38.29
2023-04-30T10:00:04.835Z,38.30
2023-04-30T10:02:38.612Z,35.26
2023-04-30T10:05:12.301Z,36.29
2023-04-30T10:07:45.224Z,38.74
2023-04-30T10:10:19.503Z,35.81
2023-04-30T10:12:57.811Z,36.27
2023-04-30T10:15:34.939Z,35.37
2023-04-30T10:18:12.867Z,34.63
2023-04-30T10:20:46.427Z,33.82
2023-04-30T10:23:19.276Z,37.99
2023-04-30T10:25:52.261Z,36.44
2023-04-30T10:28:28.226Z,35.74
2023-04-30T10:31:00.922Z,35.83
2023-04-30T10:33:49.815Z,36.16
2023-04-30T10:36:34.011Z,36.04
2023-04-30T10:39:07.284Z,36.87
2023-04-30T10:41:39.661Z,36.13
2023-04-30T10:44:14.518Z,35.76
2023-04-30T10:46:46.817Z,34.71
2023-04-30T10:49:19.117Z,37.93
2023-04-30T10:51:55.092Z,33.83
2023-04-30T10:54:30.657Z,33.99
2023-04-30T10:57:15.194Z,34.09
2023-04-30T10:59:57.204Z,33.27
2023-04-30T11:02:44.230Z,37.21
2023-04-30T11:05:18.945Z,34.21
2023-04-30T11:07:52.826Z,32.24
2023-04-30T11:10:27.559Z,35.26
2023-04-30T11:13:01.638Z,32.49
2023-04-30T11:15:44.208Z,36.78
2023-04-30T11:18:18.593Z,34.33
2023-04-30T11:20:55.349Z,34.65
2023-04-30T11:23:39.245Z,33.61
2023-04-30T11:26:14.760Z,30.85
2023-04-30T11:28:55.560Z,29.83
2023-04-30T11:31:37.809Z,29.57
2023-04-30T11:34:11.450Z,29.06
2023-04-30T11:36:46.948Z,31.15
2023-04-30T11:39:21.048Z,29.89
2023-04-30T11:41:53.464Z,29.86
2023-04-30T11:44:31.010Z,31.10
2023-04-30T11:47:06.582Z,26.91
2023-04-30T11:49:38.802Z,28.09
2023-04-30T11:52:11.472Z,31.83
2023-04-30T11:54:43.801Z,32.55
2023-04-30T11:57:16.026Z,29.57
2023-04-30T11:59:48.203Z,28.85
2023-04-30T12:02:23.157Z,29.62
2023-04-30T12:04:56.596Z,29.03
2023-04-30T12:07:28.928Z,28.89
2023-04-30T12:10:03.000Z,31.28
2023-04-30T12:12:35.616Z,29.64
2023-04-30T12:15:16.792Z,29.63
2023-04-30T12:17:51.614Z,29.11
2023-04-30T12:20:27.237Z,27.01
2023-04-30T12:23:00.195Z,26.53
2023-04-30T12:25:33.581Z,27.44
2023-04-30T12:28:05.781Z,26.06
2023-04-30T12:30:37.987Z,24.70
2023-04-30T12:33:16.368Z,23.19
2023-04-30T12:35:48.580Z,25.74
2023-04-30T12:38:23.554Z,28.51
2023-04-30T12:40:56.158Z,25.59
2023-04-30T12:43:28.539Z,23.75
2023-04-30T12:46:02.860Z,25.40
2023-04-30T12:48:48.285Z,23.41
2023-04-30T12:51:24.687Z,25.07
2023-04-30T12:53:56.939Z,24.89
2023-04-30T12:56:29.185Z,23.93
2023-04-30T12:59:01.606Z,21.84
2023-04-30T13:01:34.623Z,21.37
2023-04-30T13:04:09.900Z,20.54
2023-04-30T13:06:42.543Z,19.64
2023-04-30T13:09:15.023Z,20.51
2023-04-30T13:11:47.477Z,18.54
2023-04-30T13:14:20.406Z,19.01
2023-04-30T13:16:53.768Z,18.52
2023-04-30T13:19:29.535Z,15.33
2023-04-30T13:22:01.954Z,13.81
2023-04-30T13:24:34.287Z,15.83
2023-04-30T13:27:07.148Z,14.46
2023-04-30T13:29:39.309Z,12.49
2023-04-30T13:32:11.504Z,11.36
2023-04-30T13:34:46.396Z,13.06
2023-04-30T13:37:18.594Z,12.34
2023-04-30T13:39:50.825Z,12.34
2023-04-30T13:42:23.089Z,14.29
2023-04-30T13:44:55.700Z,14.98
2023-04-30T13:47:28.018Z,11.50
2023-04-30T13:50:02.804Z,9.49
2023-04-30T13:52:35.004Z,8.87
2023-04-30T13:55:07.485Z,8.30
2023-04-30T13:57:39.982Z,8.89
2023-04-30T14:00:13.348Z,9.16
2023-04-30T14:02:45.720Z,11.90
2023-04-30T14:05:20.897Z,10.26
2023-04-30T14:07:53.056Z,9.67
2023-04-30T14:10:25.336Z,9.71
2023-04-30T14:12:57.533Z,9.17
2023-04-30T14:15:30.762Z,11.18
2023-04-30T14:18:03.224Z,10.94
2023-04-30T14:20:38.076Z,9.96
2023-04-30T14:23:10.401Z,9.56
2023-04-30T14:25:42.681Z,9.97
2023-04-30T14:28:14.890Z,10.11
2023-04-30T14:30:47.100Z,9.15
2023-04-30T14:33:19.311Z,10.29
2023-04-30T14:35:54.555Z,9.85
2023-04-30T14:38:26.797Z,9.45
2023-04-30T14:40:58.962Z,9.91
2023-04-30T14:43:31.207Z,11.12
2023-04-30T14:46:03.621Z,9.29
2023-04-30T14:48:36.147Z,11.59
2023-04-30T14:51:11.212Z,9.09
2023-04-30T14:53:43.351Z,8.66
2023-04-30T14:56:16.106Z,10.16
2023-04-30T14:58:48.301Z,9.04
2023-04-30T15:01:20.808Z,9.20
2023-04-30T15:03:53.405Z,8.45
2023-04-30T15:06:28.492Z,9.09
2023-04-30T15:09:01.351Z,9.13
2023-04-30T15:11:33.480Z,9.42
2023-04-30T15:14:05.658Z,9.68
2023-04-30T15:16:37.982Z,11.39
2023-04-30T15:19:10.387Z,9.07
2023-04-30T15:21:47.004Z,9.14
2023-04-30T15:24:20.771Z,9.80
2023-04-30T15:26:55.140Z,9.60
2023-04-30T15:29:27.537Z,10.59
2023-04-30T15:31:59.838Z,16.41
2023-04-30T15:34:32.206Z,10.46
2023-04-30T15:37:07.046Z,8.91
2023-04-30T15:39:39.910Z,10.28
2023-04-30T15:42:12.057Z,8.61
2023-04-30T15:44:44.191Z,8.39
2023-04-30T15:47:16.666Z,8.46
2023-04-30T15:49:48.874Z,7.61
2023-04-30T15:52:23.594Z,7.44
2023-04-30T15:54:56.250Z,8.29
2023-04-30T15:57:28.713Z,8.62
2023-04-30T16:00:01.035Z,9.59
2023-04-30T16:02:33.290Z,8.39
2023-04-30T16:05:06.130Z,9.06
2023-04-30T16:07:43.932Z,7.78
2023-04-30T16:10:17.139Z,7.29
2023-04-30T16:12:49.392Z,8.49
2023-04-30T16:15:22.087Z,8.21
2023-04-30T16:17:54.364Z,9.17
2023-04-30T16:20:27.457Z,8.55
2023-04-30T16:23:02.529Z,8.79
2023-04-30T16:25:34.936Z,9.44
2023-04-30T16:28:07.097Z,9.22
2023-04-30T16:30:39.544Z,9.62
2023-04-30T16:33:12.553Z,9.64
2023-04-30T16:35:44.880Z,8.65
2023-04-30T16:38:20.689Z,9.98
2023-04-30T16:40:53.754Z,7.97
2023-04-30T16:43:26.230Z,8.59
2023-04-30T16:45:58.649Z,8.64
2023-04-30T16:48:30.838Z,9.10
2023-04-30T16:51:03.120Z,9.31
2023-04-30T16:53:37.831Z,9.42
2023-04-30T16:56:10.421Z,9.14
2023-04-30T16:58:42.676Z,8.28
2023-04-30T17:01:14.935Z,8.84
2023-04-30T17:03:47.287Z,8.05
2023-04-30T17:06:19.781Z,8.65
2023-04-30T17:08:54.685Z,8.92
2023-04-30T17:11:26.937Z,8.43
2023-04-30T17:13:59.095Z,7.80
2023-04-30T17:16:31.492Z,8.11
2023-04-30T17:19:03.827Z,8.99
2023-04-30T17:21:38.864Z,9.47
2023-04-30T17:24:13.949Z,9.76
2023-04-30T17:26:46.226Z,9.16
2023-04-30T17:29:19.850Z,9.48
2023-04-30T17:31:52.060Z,9.39
2023-04-30T17:34:26.032Z,10.08
2023-04-30T17:36:58.219Z,9.81
2023-04-30T17:39:33.318Z,8.54
2023-04-30T17:42:06.097Z,9.83
2023-04-30T17:44:43.018Z,12.05
2023-04-30T17:47:16.266Z,12.49
2023-04-30T17:49:48.530Z,10.70
2023-04-30T17:52:20.746Z,12.24
2023-04-30T17:54:57.087Z,11.02
2023-04-30T17:57:32.313Z,9.46
2023-04-30T18:00:05.272Z,10.16
2023-04-30T18:02:38.050Z,10.48
2023-04-30T18:05:11.763Z,11.06
2023-04-30T18:07:44.131Z,12.56
2023-04-30T18:10:19.196Z,15.64
2023-04-30T18:12:51.432Z,16.71
2023-04-30T18:15:23.698Z,15.31
2023-04-30T18:17:56.109Z,13.98
2023-04-30T18:20:28.598Z,12.29
2023-04-30T18:23:00.791Z,12.91
2023-04-30T18:25:37.104Z,14.90
2023-04-30T18:28:10.416Z,15.49
2023-04-30T18:30:42.620Z,16.34
2023-04-30T18:33:14.905Z,16.16
2023-04-30T18:35:50.489Z,16.80
2023-04-30T18:38:22.780Z,16.94
2023-04-30T18:41:00.564Z,16.95
2023-04-30T18:43:33.289Z,16.56
2023-04-30T18:46:06.087Z,24.39
2023-04-30T18:48:38.474Z,37.04
2023-04-30T18:51:10.866Z,31.84
2023-04-30T18:53:45.380Z,27.61
2023-04-30T18:56:21.334Z,29.47
2023-04-30T18:58:53.532Z,39.69
2023-04-30T19:01:27.458Z,39.26
2023-04-30T19:03:59.820Z,41.85
2023-04-30T19:06:33.581Z,31.60
2023-04-30T19:09:06.147Z,49.91
2023-04-30T19:11:41.398Z,72.91
2023-04-30T19:14:13.639Z,82.67
2023-04-30T19:16:46.423Z,53.76
2023-04-30T19:19:18.728Z,59.46
2023-04-30T19:21:51.108Z,83.67
2023-04-30T19:24:25.512Z,67.16
2023-04-30T19:27:04.326Z,69.20
2023-04-30T19:29:39.541Z,54.59
2023-04-30T19:32:11.985Z,55.30
2023-04-30T19:34:44.203Z,63.86
2023-04-30T19:37:16.453Z,70.16
2023-04-30T19:39:48.628Z,56.77
2023-04-30T19:42:23.390Z,34.41
2023-04-30T19:44:56.162Z,25.97
2023-04-30T19:47:28.473Z,53.20
2023-04-30T19:50:00.845Z,138.14
2023-04-30T19:52:33.118Z,150.29
2023-04-30T19:55:05.308Z,94.69
2023-04-30T19:57:40.157Z,55.56
2023-04-30T20:00:14.138Z,32.17
2023-04-30T20:02:47.792Z,24.09
2023-04-30T20:05:20.177Z,24.03
2023-04-30T20:07:52.637Z,29.60
2023-04-30T20:10:25.015Z,50.57
2023-04-30T20:13:02.996Z,42.98
2023-04-30T20:15:35.818Z,25.27
2023-04-30T20:18:08.509Z,25.84
2023-04-30T20:20:40.707Z,27.17
2023-04-30T20:23:17.996Z,29.17
2023-04-30T20:25:51.250Z,27.43
2023-04-30T20:28:27.110Z,25.48
2023-04-30T20:31:02.582Z,25.12
2023-04-30T20:33:35.105Z,24.30
2023-04-30T20:36:07.559Z,24.33
2023-04-30T20:38:40.071Z,24.11
2023-04-30T20:41:12.696Z,27.05
2023-04-30T20:43:47.468Z,27.46
2023-04-30T20:46:19.776Z,29.65
2023-04-30T20:48:54.780Z,30.51
2023-04-30T20:51:28.273Z,30.41
2023-04-30T20:54:00.579Z,30.57
2023-04-30T20:56:32.880Z,29.23
2023-04-30T20:59:07.842Z,29.30
2023-04-30T21:01:40.180Z,28.46
2023-04-30T21:04:12.496Z,30.23
2023-04-30T21:06:44.921Z,29.21
2023-04-30T21:09:17.157Z,29.69
2023-04-30T21:11:49.333Z,26.29
2023-04-30T21:14:24.436Z,26.29
2023-04-30T21:16:56.697Z,23.04
2023-04-30T21:19:29.455Z,23.54
2023-04-30T21:22:01.831Z,24.32
2023-04-30T21:24:35.338Z,25.75
2023-04-30T21:27:07.664Z,26.22
2023-04-30T21:29:47.378Z,27.49
2023-04-30T21:32:19.638Z,32.73
2023-04-30T21:34:51.809Z,37.09
2023-04-30T21:37:24.125Z,39.34
2023-04-30T21:39:56.634Z,41.69
2023-04-30T21:42:29.882Z,47.29
2023-04-30T21:45:04.931Z,46.66
2023-04-30T21:47:37.123Z,43.89
2023-04-30T21:50:10.752Z,40.99
2023-04-30T21:52:42.917Z,39.64
2023-04-30T21:55:15.155Z,36.59
2023-04-30T21:57:48.422Z,35.39
2023-04-30T22:00:23.964Z,35.90
2023-04-30T22:02:56.160Z,34.64
2023-04-30T22:05:28.501Z,34.22
2023-04-30T22:08:00.690Z,37.32
2023-04-30T22:10:33.252Z,37.44
2023-04-30T22:13:05.502Z,35.94
2023-04-30T22:15:47.613Z,34.17
2023-04-30T22:18:20.808Z,32.36
2023-04-30T22:20:54.603Z,31.81
2023-04-30T22:23:26.843Z,36.86
2023-04-30T22:25:59.220Z,38.21
2023-04-30T22:28:31.440Z,38.11
2023-04-30T22:31:06.244Z,36.13
2023-04-30T22:33:39.029Z,34.99
2023-04-30T22:36:11.630Z,35.52
2023-04-30T22:38:43.792Z,33.43
2023-04-30T22:41:16.314Z,30.83
2023-04-30T22:43:50.731Z,26.59
2023-04-30T22:46:27.181Z,25.37
2023-04-30T22:48:59.578Z,25.65
2023-04-30T22:51:31.901Z,25.44
2023-04-30T22:54:04.163Z,25.81
2023-04-30T22:56:39.596Z,25.71
2023-04-30T22:59:11.839Z,25.44
2023-04-30T23:01:47.047Z,26.91
2023-04-30T23:04:19.251Z,28.69
2023-04-30T23:06:51.649Z,26.56
2023-04-30T23:09:23.922Z,26.58
2023-04-30T23:11:56.190Z,27.31
2023-04-30T23:14:29.900Z,26.06
2023-04-30T23:17:05.128Z,26.39
2023-04-30T23:19:37.379Z,26.49
2023-04-30T23:22:10.565Z,26.99
2023-04-30T23:24:42.753Z,25.24
2023-04-30T23:27:14.939Z,26.62
2023-04-30T23:29:47.340Z,25.51
2023-04-30T23:32:22.212Z,26.57
2023-04-30T23:34:54.512Z,26.45
2023-04-30T23:37:26.688Z,26.38
2023-04-30T23:39:59.732Z,26.04
2023-04-30T23:42:31.865Z,26.54
2023-04-30T23:45:04.077Z,26.71
2023-04-30T23:47:39.294Z,27.99
2023-04-30T23:50:13.360Z,30.04
2023-04-30T23:52:45.499Z,29.54
2023-04-30T23:55:18.087Z,30.69
2023-04-30T23:57:50.492Z,29.84
